Time;durP1;ratioP1;P1;durP2;ratioP2;P2;SDS_P1;SDS_P2;PMS_P1;PMS_P2;Temp;Humidity;BMP_temperature;BMP_pressure;BME280_temperature;BME280_humidity;BME280_pressure;Samples;Min_cycle;Max_cycle;Signal;HPM_P1;HPM_P2
2021/10/24 00:02:14;;;;;;;14.68;6.65;;;2.60;99.90;;;;;;4953297;29;20509;-68
2021/10/24 00:04:42;;;;;;;13.68;6.95;;;2.60;99.90;;;;;;4952737;28;20062;-68
2021/10/24 00:07:09;;;;;;;13.00;6.82;;;2.50;99.90;;;;;;4961343;28;20113;-68
2021/10/24 00:09:36;;;;;;;13.23;6.85;;;2.50;99.90;;;;;;4953372;28;20045;-68
2021/10/24 00:12:04;;;;;;;13.80;6.78;;;2.50;99.90;;;;;;4953386;29;20426;-68
2021/10/24 00:14:31;;;;;;;14.35;7.18;;;2.50;99.90;;;;;;4953330;28;20058;-69
2021/10/24 00:16:58;;;;;;;15.20;6.85;;;2.40;99.90;;;;;;4952616;28;20039;-68
2021/10/24 00:19:26;;;;;;;14.40;6.68;;;2.40;99.90;;;;;;4945070;28;20054;-68
2021/10/24 00:21:55;;;;;;;16.40;8.05;;;2.40;99.90;;;;;;4952642;29;20102;-68
2021/10/24 00:24:23;;;;;;;13.38;7.10;;;2.40;99.90;;;;;;4951601;28;20047;-68
2021/10/24 00:26:50;;;;;;;16.80;6.55;;;2.30;99.90;;;;;;4953796;29;20036;-68
2021/10/24 00:29:17;;;;;;;11.98;6.63;;;2.30;99.90;;;;;;4952030;28;20490;-68
2021/10/24 00:31:44;;;;;;;11.82;6.60;;;2.40;99.90;;;;;;4953682;29;20051;-68
2021/10/24 00:34:15;;;;;;;11.63;6.07;;;2.40;99.90;;;;;;4952580;28;20050;-68
2021/10/24 00:36:42;;;;;;;12.80;6.20;;;2.40;99.90;;;;;;4939684;29;20122;-68
2021/10/24 00:39:10;;;;;;;13.90;7.05;;;2.30;99.90;;;;;;4957405;28;20549;-68
2021/10/24 00:41:38;;;;;;;13.40;7.20;;;2.30;99.90;;;;;;4951511;29;20127;-68
2021/10/24 00:44:28;;;;;;;15.98;6.80;;;2.30;99.90;;;;;;4952289;28;20123;-68
2021/10/24 00:46:57;;;;;;;15.48;6.00;;;2.30;99.90;;;;;;4951946;28;20050;-68
2021/10/24 00:49:25;;;;;;;12.52;6.40;;;2.30;99.90;;;;;;4953143;28;20039;-67
2021/10/24 00:51:53;;;;;;;12.40;6.88;;;2.30;99.90;;;;;;4951139;28;20502;-68
2021/10/24 00:54:22;;;;;;;13.15;6.45;;;2.30;99.90;;;;;;4952926;28;20055;-67
2021/10/24 00:56:53;;;;;;;11.48;5.80;;;2.30;99.90;;;;;;4952266;29;20458;-67
2021/10/24 00:59:23;;;;;;;11.50;6.10;;;2.30;99.90;;;;;;4952337;29;20462;-67
2021/10/24 01:01:51;;;;;;;12.30;5.82;;;2.30;99.90;;;;;;4950885;29;20382;-69
2021/10/24 01:04:19;;;;;;;12.38;5.82;;;2.20;99.90;;;;;;4951503;28;20058;-68
2021/10/24 01:06:52;;;;;;;14.15;6.82;;;2.20;99.90;;;;;;4957265;28;20398;-68
2021/10/24 01:09:23;;;;;;;13.15;6.90;;;2.20;99.90;;;;;;4954455;28;20471;-68
2021/10/24 01:11:52;;;;;;;13.27;6.35;;;2.20;99.90;;;;;;4951617;28;20050;-68
2021/10/24 01:14:20;;;;;;;13.10;6.68;;;2.10;99.90;;;;;;4949125;28;20069;-68
2021/10/24 01:16:51;;;;;;;12.32;6.32;;;2.10;99.90;;;;;;4945156;29;20047;-68
2021/10/24 01:19:20;;;;;;;13.90;6.60;;;2.10;99.90;;;;;;4951684;29;20043;-68
2021/10/24 01:21:48;;;;;;;9.35;5.97;;;2.10;99.90;;;;;;4947246;29;20039;-68
2021/10/24 01:24:16;;;;;;;10.65;6.25;;;2.00;99.90;;;;;;4943717;28;20043;-68
2021/10/24 01:26:43;;;;;;;17.08;6.30;;;2.00;99.90;;;;;;4956635;28;20050;-68
2021/10/24 01:29:12;;;;;;;9.80;5.85;;;2.00;99.90;;;;;;4950494;28;20066;-68
2021/10/24 01:31:41;;;;;;;14.68;5.68;;;2.00;99.90;;;;;;4921526;29;20565;-68
2021/10/24 01:34:10;;;;;;;9.52;5.78;;;2.00;99.90;;;;;;4954131;28;20125;-68
2021/10/24 01:36:40;;;;;;;14.65;5.97;;;2.00;99.90;;;;;;4937709;29;20047;-68
2021/10/24 01:39:08;;;;;;;13.00;6.50;;;2.00;99.90;;;;;;4953953;28;20055;-68
2021/10/24 01:41:35;;;;;;;9.82;5.30;;;1.90;99.90;;;;;;4937876;29;20495;-68
2021/10/24 01:44:04;;;;;;;13.95;6.47;;;1.90;99.90;;;;;;4960648;28;20047;-68
2021/10/24 01:46:32;;;;;;;11.45;5.25;;;1.90;99.90;;;;;;4943671;29;20043;-68
2021/10/24 01:49:00;;;;;;;13.55;5.90;;;1.90;99.90;;;;;;4938296;29;20601;-68
2021/10/24 01:51:27;;;;;;;10.30;5.45;;;1.90;99.90;;;;;;4955396;28;20039;-68
2021/10/24 01:53:55;;;;;;;12.20;5.75;;;1.90;99.90;;;;;;4957707;28;20075;-68
2021/10/24 01:56:23;;;;;;;12.30;5.63;;;1.80;99.90;;;;;;4940806;29;20043;-68
2021/10/24 01:58:52;;;;;;;11.77;5.28;;;1.80;99.90;;;;;;4941346;29;20054;-68
2021/10/24 02:01:21;;;;;;;15.13;6.05;;;1.80;99.90;;;;;;4946120;29;20154;-68
2021/10/24 02:03:59;;;;;;;11.35;6.53;;;1.80;99.90;;;;;;4959176;28;20039;-68
2021/10/24 02:06:27;;;;;;;13.57;6.18;;;1.80;99.90;;;;;;4956608;28;20047;-68
2021/10/24 02:08:54;;;;;;;9.43;5.15;;;1.70;99.90;;;;;;4962575;28;20114;-68
2021/10/24 02:11:22;;;;;;;15.07;5.50;;;1.70;99.90;;;;;;4948877;28;20050;-68
2021/10/24 02:13:51;;;;;;;12.05;5.95;;;1.70;99.90;;;;;;4962393;28;20039;-69
2021/10/24 02:16:19;;;;;;;13.70;5.80;;;1.70;99.90;;;;;;4950682;28;20122;-68
2021/10/24 02:18:48;;;;;;;12.98;5.70;;;1.70;99.90;;;;;;4945770;29;20049;-68
2021/10/24 02:21:16;;;;;;;10.68;5.47;;;1.70;99.90;;;;;;4953096;29;20043;-68
2021/10/24 02:23:44;;;;;;;12.30;5.93;;;1.60;99.90;;;;;;4951517;28;20394;-68
2021/10/24 02:26:16;;;;;;;11.07;5.35;;;1.70;99.90;;;;;;4968313;28;20532;-68
2021/10/24 02:28:44;;;;;;;10.55;5.72;;;1.70;99.90;;;;;;4950571;28;20039;-68
2021/10/24 02:31:11;;;;;;;11.45;4.57;;;1.70;99.90;;;;;;4970817;28;20038;-68
2021/10/24 02:33:57;;;;;;;9.55;5.18;;;1.70;99.90;;;;;;4957638;28;20577;-68
2021/10/24 02:36:43;;;;;;;10.75;5.40;;;1.70;99.90;;;;;;4958276;28;20047;-68
2021/10/24 02:39:10;;;;;;;11.55;5.30;;;1.70;99.90;;;;;;4957488;28;20445;-68
2021/10/24 02:41:41;;;;;;;11.35;5.45;;;1.70;99.90;;;;;;4943737;29;20051;-68
2021/10/24 02:44:08;;;;;;;7.90;5.13;;;1.70;99.90;;;;;;4962138;28;20501;-68
2021/10/24 02:46:43;;;;;;;10.05;5.13;;;1.70;99.90;;;;;;4948752;29;20110;-68
2021/10/24 02:49:12;;;;;;;8.95;4.95;;;1.70;99.90;;;;;;4949106;28;20066;-68
2021/10/24 02:51:49;;;;;;;10.20;4.88;;;1.60;99.90;;;;;;4957852;28;20502;-68
2021/10/24 02:54:18;;;;;;;9.38;4.50;;;1.60;99.90;;;;;;4967855;28;20047;-68
2021/10/24 02:56:46;;;;;;;10.45;5.00;;;1.60;99.90;;;;;;4964146;28;20039;-68
2021/10/24 02:59:17;;;;;;;10.95;5.75;;;1.60;99.90;;;;;;4958796;28;20094;-68
2021/10/24 03:01:46;;;;;;;11.50;4.70;;;1.60;99.90;;;;;;4953927;28;20405;-68
2021/10/24 03:04:14;;;;;;;11.00;5.88;;;1.60;99.90;;;;;;4942865;28;20047;-68
2021/10/24 03:06:46;;;;;;;12.20;5.25;;;1.50;99.90;;;;;;4936316;29;20087;-68
2021/10/24 03:09:13;;;;;;;10.55;5.28;;;1.60;99.90;;;;;;4963196;28;20522;-68
2021/10/24 03:11:42;;;;;;;10.35;5.45;;;1.60;99.90;;;;;;4943652;29;20053;-68
2021/10/24 03:14:13;;;;;;;10.82;5.38;;;1.60;99.90;;;;;;4960479;28;20599;-68
2021/10/24 03:16:42;;;;;;;12.57;6.00;;;1.50;99.90;;;;;;4944623;28;20409;-68
2021/10/24 03:19:10;;;;;;;8.88;5.10;;;1.50;99.90;;;;;;4964777;28;20048;-68
2021/10/24 03:21:43;;;;;;;11.40;4.97;;;1.60;99.90;;;;;;4949222;28;20035;-68
2021/10/24 03:24:10;;;;;;;11.68;5.20;;;1.60;99.90;;;;;;4932689;29;20055;-68
2021/10/24 03:26:37;;;;;;;12.13;5.45;;;1.60;99.90;;;;;;4945257;28;20047;-68
2021/10/24 03:29:06;;;;;;;12.60;5.72;;;1.60;99.90;;;;;;4963444;28;20561;-68
2021/10/24 03:31:34;;;;;;;11.88;5.65;;;1.60;99.90;;;;;;4924923;29;20094;-68
2021/10/24 03:34:01;;;;;;;15.55;6.53;;;1.60;99.90;;;;;;4955677;28;20067;-68
2021/10/24 03:36:29;;;;;;;13.63;5.90;;;1.60;99.90;;;;;;4925293;29;20477;-69
2021/10/24 03:38:57;;;;;;;11.88;5.30;;;1.70;99.90;;;;;;4943377;29;20050;-68
2021/10/24 03:41:25;;;;;;;12.73;6.38;;;1.70;99.90;;;;;;4952666;28;20130;-68
2021/10/24 03:43:53;;;;;;;12.45;5.68;;;1.70;99.90;;;;;;4956180;28;20487;-68
2021/10/24 03:46:20;;;;;;;10.55;5.70;;;1.70;99.90;;;;;;4955131;28;20114;-68
2021/10/24 03:48:48;;;;;;;14.55;5.63;;;1.70;99.90;;;;;;4934001;29;20047;-68
2021/10/24 03:51:16;;;;;;;15.75;5.55;;;1.70;99.90;;;;;;4956692;28;20039;-68
2021/10/24 03:53:43;;;;;;;12.20;5.30;;;1.70;99.90;;;;;;4952691;29;20040;-68
2021/10/24 03:56:11;;;;;;;12.93;6.15;;;1.80;99.90;;;;;;4951606;29;20062;-68
2021/10/24 03:58:44;;;;;;;14.52;5.60;;;1.70;99.90;;;;;;4963388;28;20475;-68
2021/10/24 04:01:14;;;;;;;12.43;5.97;;;1.70;99.90;;;;;;4949646;29;20434;-69
2021/10/24 04:03:42;;;;;;;10.77;5.70;;;1.70;99.90;;;;;;4961615;28;20415;-69
2021/10/24 04:06:09;;;;;;;10.65;5.57;;;1.80;99.90;;;;;;4950537;28;20054;-69
2021/10/24 04:08:36;;;;;;;14.93;6.07;;;1.70;99.90;;;;;;4953716;28;20040;-68
2021/10/24 04:11:04;;;;;;;11.32;5.78;;;1.70;99.90;;;;;;4952664;28;20035;-67
2021/10/24 04:13:32;;;;;;;12.15;5.43;;;1.70;99.90;;;;;;4949692;28;20058;-67
2021/10/24 04:16:01;;;;;;;13.07;6.30;;;1.70;99.90;;;;;;4968279;28;20058;-67
2021/10/24 04:18:46;;;;;;;10.60;5.55;;;1.60;99.90;;;;;;4956968;28;20150;-67
2021/10/24 04:21:14;;;;;;;11.82;6.22;;;1.60;99.90;;;;;;4949028;28;20504;-67
2021/10/24 04:23:42;;;;;;;12.15;5.88;;;1.60;99.90;;;;;;4946636;29;20122;-68
2021/10/24 04:26:10;;;;;;;11.15;5.72;;;1.60;99.90;;;;;;4953894;28;20050;-69
2021/10/24 04:28:37;;;;;;;12.68;5.95;;;1.60;99.90;;;;;;4961066;28;20557;-68
2021/10/24 04:31:05;;;;;;;13.13;5.50;;;1.60;99.90;;;;;;4952249;29;20126;-67
2021/10/24 04:33:32;;;;;;;11.75;5.22;;;1.60;99.90;;;;;;4954304;28;20079;-67
2021/10/24 04:36:00;;;;;;;10.20;5.93;;;1.60;99.90;;;;;;4944667;28;20043;-67
2021/10/24 04:38:29;;;;;;;13.57;5.45;;;1.60;99.90;;;;;;4925860;29;20059;-68
2021/10/24 04:40:57;;;;;;;11.30;5.72;;;1.60;99.90;;;;;;4955791;28;20353;-67
2021/10/24 04:43:25;;;;;;;12.27;5.35;;;1.60;99.90;;;;;;4944067;28;20105;-67
2021/10/24 04:45:52;;;;;;;10.57;5.38;;;1.60;99.90;;;;;;4951472;29;20039;-67
2021/10/24 04:48:23;;;;;;;11.80;5.40;;;1.50;99.90;;;;;;4955175;28;20043;-67
2021/10/24 04:50:50;;;;;;;11.73;5.45;;;1.50;99.90;;;;;;4958545;28;20050;-67
2021/10/24 04:53:18;;;;;;;10.02;5.38;;;1.50;99.90;;;;;;4951992;28;20050;-68
2021/10/24 04:55:51;;;;;;;14.30;6.00;;;1.40;99.90;;;;;;4938108;28;20069;-68
2021/10/24 04:58:18;;;;;;;10.57;5.75;;;1.40;99.90;;;;;;4955154;28;20051;-67
2021/10/24 05:00:45;;;;;;;13.02;5.78;;;1.40;99.90;;;;;;4949168;28;20047;-67
2021/10/24 05:03:15;;;;;;;9.70;6.35;;;1.40;99.90;;;;;;4958733;28;20125;-68
2021/10/24 05:05:44;;;;;;;11.93;6.07;;;1.30;99.90;;;;;;4951739;29;20049;-68
2021/10/24 05:08:12;;;;;;;12.80;5.82;;;1.40;99.90;;;;;;4945554;29;20082;-68
2021/10/24 05:10:41;;;;;;;10.43;5.53;;;1.40;99.90;;;;;;4950811;28;20039;-68
2021/10/24 05:13:09;;;;;;;10.90;6.05;;;1.40;99.90;;;;;;4924451;29;20058;-68
2021/10/24 05:15:37;;;;;;;11.48;5.57;;;1.40;99.90;;;;;;4938025;29;20078;-68
2021/10/24 05:18:08;;;;;;;12.38;5.45;;;1.40;99.90;;;;;;4941457;28;20118;-68
2021/10/24 05:20:37;;;;;;;18.92;6.07;;;1.40;99.90;;;;;;4955022;28;20051;-68
2021/10/24 05:23:05;;;;;;;12.05;6.00;;;1.40;99.90;;;;;;4941222;29;20042;-67
2021/10/24 05:25:53;;;;;;;14.77;5.38;;;1.40;99.90;;;;;;4958929;28;20110;-68
2021/10/24 05:28:21;;;;;;;10.20;5.97;;;1.40;99.90;;;;;;4949184;28;20031;-68
2021/10/24 05:30:50;;;;;;;16.73;6.60;;;1.30;99.90;;;;;;4952598;28;20438;-68
2021/10/24 05:33:18;;;;;;;13.40;5.88;;;1.30;99.90;;;;;;4946011;29;20053;-68
2021/10/24 05:36:14;;;;;;;9.75;5.70;;;1.30;99.90;;;;;;4942850;29;20047;-68
2021/10/24 05:38:42;;;;;;;8.98;5.25;;;1.30;99.90;;;;;;4954248;28;20172;-68
2021/10/24 05:41:14;;;;;;;12.60;5.85;;;1.30;99.90;;;;;;4951969;28;20592;-68
2021/10/24 05:43:41;;;;;;;13.85;5.35;;;1.20;99.90;;;;;;4951837;29;20078;-68
2021/10/24 05:46:09;;;;;;;11.48;6.30;;;1.30;99.90;;;;;;4950658;28;20110;-68
2021/10/24 05:48:37;;;;;;;13.45;6.07;;;1.30;99.90;;;;;;4942976;29;20064;-68
2021/10/24 05:51:10;;;;;;;9.75;5.38;;;1.30;99.90;;;;;;4940140;29;20086;-68
2021/10/24 05:53:39;;;;;;;10.85;5.30;;;1.30;99.90;;;;;;4934382;29;20074;-68
2021/10/24 05:56:13;;;;;;;12.93;5.75;;;1.30;99.90;;;;;;4933904;29;20048;-68
2021/10/24 05:58:43;;;;;;;13.77;5.93;;;1.30;99.90;;;;;;4953307;28;20043;-68
2021/10/24 06:01:30;;;;;;;9.85;5.35;;;1.40;99.90;;;;;;4950225;28;20074;-68
2021/10/24 06:04:16;;;;;;;10.32;5.07;;;1.40;99.90;;;;;;4939555;29;20395;-68
2021/10/24 06:07:19;;;;;;;9.00;5.07;;;1.50;99.90;;;;;;4948880;28;20051;-68
2021/10/24 06:12:42;;;;;;;12.95;5.32;;;1.50;99.90;;;;;;4935437;29;20066;-68
2021/10/24 06:15:11;;;;;;;10.98;5.20;;;1.60;99.90;;;;;;4924399;29;20062;-68
2021/10/24 06:17:39;;;;;;;11.02;5.82;;;1.60;99.90;;;;;;4951275;28;20031;-68
2021/10/24 06:20:08;;;;;;;15.15;5.68;;;1.70;99.90;;;;;;4942319;28;20051;-69
2021/10/24 06:22:37;;;;;;;12.48;6.00;;;1.70;99.90;;;;;;4955581;28;20047;-68
2021/10/24 06:25:09;;;;;;;13.88;5.68;;;1.80;99.90;;;;;;4947016;29;20479;-68
2021/10/24 06:27:42;;;;;;;13.13;7.03;;;1.80;99.90;;;;;;4945456;28;20070;-68
2021/10/24 06:30:15;;;;;;;17.38;8.23;;;1.90;99.90;;;;;;4955413;28;20043;-68
2021/10/24 06:33:01;;;;;;;10.35;6.00;;;2.00;99.90;;;;;;4950140;29;20052;-68
2021/10/24 06:35:48;;;;;;;9.48;4.95;;;2.00;99.90;;;;;;4920864;28;20593;-68
2021/10/24 06:38:28;;;;;;;9.90;5.40;;;2.10;99.90;;;;;;4954485;29;20051;-68
2021/10/24 06:41:03;;;;;;;8.00;4.50;;;2.20;99.90;;;;;;4954640;28;20048;-68
2021/10/24 06:43:34;;;;;;;10.80;5.00;;;2.20;99.90;;;;;;4959188;28;20455;-68
2021/10/24 06:46:20;;;;;;;12.77;5.10;;;2.40;99.90;;;;;;4954198;28;20047;-68
2021/10/24 06:48:47;;;;;;;8.82;5.05;;;2.40;99.90;;;;;;4955785;29;20074;-68
2021/10/24 06:51:19;;;;;;;10.80;4.75;;;2.50;99.90;;;;;;4949708;29;20455;-68
2021/10/24 06:54:09;;;;;;;10.60;5.03;;;2.60;99.90;;;;;;4955139;29;20051;-66
2021/10/24 06:57:12;;;;;;;;;;;2.60;99.90;;;;;;4877558;29;20049;-68
2021/10/24 07:00:17;;;;;;;16.83;6.85;;;2.70;99.90;;;;;;4876012;29;20299;-68
2021/10/24 07:03:03;;;;;;;13.13;6.70;;;2.80;99.90;;;;;;4877078;29;20045;-68
2021/10/24 07:05:49;;;;;;;11.18;5.47;;;2.90;99.90;;;;;;4876189;29;20052;-69
2021/10/24 07:08:24;;;;;;;10.30;5.93;;;2.90;99.90;;;;;;4876081;29;20041;-69
2021/10/24 07:10:51;;;;;;;11.60;5.10;;;3.00;99.90;;;;;;4876214;29;20491;-68
2021/10/24 07:13:18;;;;;;;11.38;5.30;;;3.10;99.90;;;;;;4875733;29;20403;-67
2021/10/24 07:16:00;;;;;;;15.23;6.55;;;3.10;99.90;;;;;;4860006;29;20112;-69
2021/10/24 07:18:28;;;;;;;11.10;6.63;;;3.30;99.90;;;;;;4875458;29;20056;-67
2021/10/24 07:20:55;;;;;;;14.43;7.07;;;3.30;99.90;;;;;;4877014;29;20080;-67
2021/10/24 07:23:22;;;;;;;12.38;5.57;;;3.50;99.90;;;;;;4875989;29;20381;-67
2021/10/24 07:26:08;;;;;;;10.10;5.40;;;3.60;99.90;;;;;;4875869;29;20173;-67
2021/10/24 07:28:36;;;;;;;11.60;4.70;;;3.70;99.90;;;;;;4875923;29;20045;-67
2021/10/24 07:31:22;;;;;;;11.68;5.72;;;3.80;99.90;;;;;;4901073;29;20565;-67
2021/10/24 07:34:10;;;;;;;10.27;5.13;;;3.90;99.90;;;;;;4950293;28;20066;-67
2021/10/24 07:36:43;;;;;;;10.32;5.45;;;4.00;99.90;;;;;;4942370;28;20050;-68
2021/10/24 07:39:10;;;;;;;10.80;5.22;;;4.20;99.90;;;;;;4960234;28;20378;-67
2021/10/24 07:41:38;;;;;;;11.55;5.47;;;4.30;99.90;;;;;;4956373;28;20645;-67
2021/10/24 07:44:07;;;;;;;8.70;4.45;;;4.40;99.90;;;;;;4956627;28;20039;-67
2021/10/24 07:46:38;;;;;;;9.93;4.38;;;4.40;99.90;;;;;;4963309;28;20039;-67
2021/10/24 07:49:06;;;;;;;8.20;4.55;;;4.50;99.90;;;;;;4934101;29;20122;-67
2021/10/24 07:51:35;;;;;;;13.05;5.65;;;4.60;99.90;;;;;;4951581;28;20067;-67
2021/10/24 07:54:04;;;;;;;14.38;6.68;;;4.70;99.90;;;;;;4952317;28;20051;-67
2021/10/24 07:56:36;;;;;;;12.25;6.43;;;4.80;99.90;;;;;;4952125;28;20086;-67
2021/10/24 07:59:28;;;;;;;11.52;5.05;;;4.90;99.90;;;;;;4934580;29;20675;-66
2021/10/24 08:01:59;;;;;;;9.20;4.45;;;4.90;99.90;;;;;;4935466;29;20066;-67
2021/10/24 08:04:32;;;;;;;11.57;4.43;;;5.10;99.90;;;;;;4946214;29;20043;-67
2021/10/24 08:07:05;;;;;;;21.23;9.60;;;5.20;99.90;;;;;;4956910;28;20047;-67
2021/10/24 08:09:33;;;;;;;19.05;9.52;;;5.30;99.90;;;;;;4947234;28;20058;-67
2021/10/24 08:12:01;;;;;;;18.50;8.95;;;5.40;99.90;;;;;;4937278;28;20453;-67
2021/10/24 08:14:31;;;;;;;11.13;5.97;;;5.50;99.90;;;;;;4927268;29;20391;-67
2021/10/24 08:17:00;;;;;;;8.35;4.22;;;5.60;99.90;;;;;;4941639;28;20050;-67
2021/10/24 08:19:27;;;;;;;7.68;3.90;;;5.70;99.90;;;;;;4913894;29;20078;-66
2021/10/24 08:22:01;;;;;;;8.27;3.78;;;5.90;99.90;;;;;;4917584;29;20082;-67
2021/10/24 08:24:31;;;;;;;9.48;3.42;;;6.00;99.90;;;;;;4940056;28;20044;-67
2021/10/24 08:27:30;;;;;;;9.68;3.90;;;6.10;99.90;;;;;;4949129;28;20074;-67
2021/10/24 08:30:18;;;;;;;7.82;3.95;;;6.30;99.90;;;;;;4946146;29;20505;-67
2021/10/24 08:33:00;;;;;;;;;;;6.40;99.90;;;;;;4963900;28;20094;-67
2021/10/24 08:35:28;;;;;;;6.53;3.10;;;6.60;99.90;;;;;;4951761;28;20348;-67
2021/10/24 08:37:55;;;;;;;9.77;4.10;;;6.70;99.90;;;;;;4952877;28;20039;-67
2021/10/24 08:40:22;;;;;;;12.80;6.03;;;6.80;99.90;;;;;;4948255;28;20051;-67
2021/10/24 08:42:58;;;;;;;11.13;5.90;;;7.00;99.90;;;;;;4951460;28;20509;-67
2021/10/24 08:45:27;;;;;;;8.13;4.60;;;7.10;99.90;;;;;;4943038;28;20055;-67
2021/10/24 08:47:57;;;;;;;10.43;3.78;;;7.30;99.90;;;;;;4948846;29;20434;-67
2021/10/24 08:50:24;;;;;;;8.48;3.70;;;7.40;99.90;;;;;;4951613;28;20077;-66
2021/10/24 08:52:52;;;;;;;12.45;3.75;;;7.50;99.90;;;;;;4953022;29;20089;-66
2021/10/24 08:55:20;;;;;;;8.25;3.45;;;7.60;99.90;;;;;;4952767;28;20138;-68
2021/10/24 08:57:49;;;;;;;8.38;3.63;;;7.70;99.90;;;;;;4953456;29;20062;-66
2021/10/24 09:00:37;;;;;;;9.35;3.67;;;7.90;99.90;;;;;;4952114;28;20434;-68
2021/10/24 09:03:12;;;;;;;10.55;4.07;;;8.00;99.90;;;;;;4952530;28;20051;-67
2021/10/24 09:05:48;;;;;;;9.93;4.18;;;8.10;99.90;;;;;;4940943;29;20036;-68
2021/10/24 09:08:21;;;;;;;11.32;6.00;;;8.30;99.90;;;;;;4959901;28;20418;-67
2021/10/24 09:10:56;;;;;;;11.20;5.28;;;8.40;99.90;;;;;;4951929;29;20110;-67
2021/10/24 09:13:26;;;;;;;9.55;4.63;;;8.60;99.90;;;;;;4951691;29;20439;-67
2021/10/24 09:15:57;;;;;;;8.90;4.10;;;8.70;99.90;;;;;;4952026;29;20071;-67
2021/10/24 09:18:32;;;;;;;6.05;3.30;;;8.80;99.90;;;;;;4950793;28;20510;-67
2021/10/24 09:21:15;;;;;;;9.13;3.58;;;9.00;99.90;;;;;;4933549;29;20039;-67
2021/10/24 09:23:45;;;;;;;8.77;3.97;;;9.10;99.90;;;;;;4950911;28;20043;-67
2021/10/24 09:26:22;;;;;;;10.63;4.10;;;9.20;99.90;;;;;;4965387;28;20051;-68
2021/10/24 09:29:09;;;;;;;11.57;5.50;;;9.40;99.90;;;;;;4951843;28;20417;-68
2021/10/24 09:31:42;;;;;;;6.38;2.97;;;9.50;99.90;;;;;;4940385;28;20078;-67
2021/10/24 09:34:14;;;;;;;7.57;3.05;;;9.70;99.90;;;;;;4951072;28;20058;-67
2021/10/24 09:36:55;;;;;;;7.43;3.50;;;9.80;99.90;;;;;;4952225;29;20043;-67
2021/10/24 09:39:42;;;;;;;19.73;8.90;;;10.00;99.90;;;;;;4949589;28;20046;-66
2021/10/24 09:42:13;;;;;;;13.05;7.28;;;10.10;99.90;;;;;;4950026;29;20478;-67
2021/10/24 09:45:08;;;;;;;8.85;3.60;;;10.30;99.90;;;;;;4951494;29;20039;-67
2021/10/24 09:47:48;;;;;;;5.85;2.45;;;10.50;99.90;;;;;;4920713;29;20050;-67
2021/10/24 09:50:33;;;;;;;8.70;3.67;;;10.60;99.90;;;;;;4951135;28;20039;-67
2021/10/24 09:53:37;;;;;;;8.18;3.25;;;10.70;99.90;;;;;;4950702;29;20039;-67
2021/10/24 09:56:07;;;;;;;6.93;2.97;;;10.90;99.90;;;;;;4946518;29;20051;-67
2021/10/24 09:58:40;;;;;;;7.75;2.92;;;11.10;99.90;;;;;;4939953;29;20047;-68
2021/10/24 10:01:12;;;;;;;8.18;3.90;;;11.30;99.90;;;;;;4940135;29;20445;-67
2021/10/24 10:03:43;;;;;;;6.75;2.70;;;11.40;99.90;;;;;;4950653;29;20044;-67
2021/10/24 10:06:17;;;;;;;7.18;2.50;;;11.60;99.90;;;;;;4955659;28;20127;-68
2021/10/24 10:08:45;;;;;;;4.95;2.47;;;11.80;99.90;;;;;;4953599;28;20050;-67
2021/10/24 10:11:27;;;;;;;7.72;3.00;;;11.90;99.90;;;;;;4943199;28;20054;-66
2021/10/24 10:14:00;;;;;;;7.30;2.92;;;12.00;99.90;;;;;;4950085;29;20090;-68
2021/10/24 10:16:39;;;;;;;5.60;2.60;;;12.00;99.90;;;;;;4955325;28;20414;-66
2021/10/24 10:19:09;;;;;;;7.60;2.75;;;12.20;99.90;;;;;;4954489;28;20105;-67
2021/10/24 10:21:42;;;;;;;8.23;3.55;;;12.30;99.90;;;;;;4956454;29;20137;-67
2021/10/24 10:24:37;;;;;;;6.47;2.42;;;12.50;99.90;;;;;;4955046;29;20510;-67
2021/10/24 10:27:27;;;;;;;9.57;2.67;;;12.60;99.90;;;;;;4951902;29;20058;-67
2021/10/24 10:30:00;;;;;;;17.30;7.53;;;12.80;99.90;;;;;;4937566;28;20466;-67
2021/10/24 10:32:39;;;;;;;9.55;4.72;;;13.00;99.90;;;;;;4947888;28;20198;-67
2021/10/24 10:35:22;;;;;;;6.60;3.17;;;13.20;99.90;;;;;;4953671;29;20047;-67
2021/10/24 10:37:54;;;;;;;8.48;3.08;;;13.50;99.90;;;;;;4954386;28;20509;-67
2021/10/24 10:40:30;;;;;;;9.32;4.05;;;13.90;99.90;;;;;;4953441;28;20468;-67
2021/10/24 10:43:02;;;;;;;5.25;2.50;;;14.00;99.90;;;;;;4950370;28;20054;-67
2021/10/24 10:45:38;;;;;;;6.18;2.70;;;14.10;99.90;;;;;;4955905;28;20114;-67
2021/10/24 10:48:08;;;;;;;6.60;3.05;;;14.40;99.90;;;;;;4955070;29;20383;-68
2021/10/24 10:50:39;;;;;;;7.25;2.83;;;14.50;99.90;;;;;;4953903;29;20043;-69
2021/10/24 10:53:08;;;;;;;8.10;2.83;;;14.80;99.90;;;;;;4954650;29;20043;-67
2021/10/24 10:56:01;;;;;;;8.45;2.60;;;14.90;99.90;;;;;;4954626;28;20051;-66
2021/10/24 10:58:32;;;;;;;7.65;3.28;;;15.00;99.90;;;;;;4950641;28;20050;-67
2021/10/24 11:01:00;;;;;;;5.60;2.55;;;15.20;99.90;;;;;;4955289;28;20416;-68
2021/10/24 11:03:48;;;;;;;5.30;2.30;;;15.30;99.90;;;;;;4957023;28;20474;-67
2021/10/24 11:06:25;;;;;;;6.50;2.95;;;15.60;99.90;;;;;;4958160;28;20121;-67
2021/10/24 11:08:57;;;;;;;6.82;2.60;;;15.70;99.90;;;;;;4956198;28;20049;-66
2021/10/24 11:11:40;;;;;;;5.68;2.40;;;15.80;99.90;;;;;;4955655;28;20071;-67
2021/10/24 11:14:10;;;;;;;6.22;2.75;;;16.00;99.90;;;;;;4952595;29;20054;-67
2021/10/24 11:16:52;;;;;;;9.70;5.00;;;16.20;99.90;;;;;;4955805;28;20089;-67
2021/10/24 11:19:28;;;;;;;8.73;3.72;;;16.40;99.90;;;;;;4947212;28;20043;-67
2021/10/24 11:22:01;;;;;;;7.30;2.53;;;16.80;99.90;;;;;;4956463;28;20138;-66
2021/10/24 11:24:40;;;;;;;6.65;2.42;;;17.10;99.90;;;;;;4936011;29;20382;-66
2021/10/24 11:27:10;;;;;;;7.30;2.90;;;17.30;99.90;;;;;;4948611;29;20086;-66
2021/10/24 11:29:50;;;;;;;7.82;2.58;;;17.50;99.90;;;;;;4952768;28;20047;-68
2021/10/24 11:32:37;;;;;;;7.13;2.47;;;17.60;99.90;;;;;;4953664;28;20044;-67
2021/10/24 11:35:13;;;;;;;6.13;2.85;;;17.70;99.90;;;;;;4950072;29;20075;-66
2021/10/24 11:37:50;;;;;;;9.77;4.40;;;17.80;99.90;;;;;;4952714;29;20057;-67
2021/10/24 11:40:27;;;;;;;6.18;3.65;;;18.00;99.90;;;;;;4952757;29;20061;-67
2021/10/24 11:43:14;;;;;;;7.10;3.10;;;18.20;99.90;;;;;;4952568;29;20051;-67
2021/10/24 11:45:52;;;;;;;5.88;2.75;;;18.50;99.90;;;;;;4953837;29;20057;-67
2021/10/24 11:48:26;;;;;;;5.63;2.55;;;18.70;99.40;;;;;;4954599;28;20031;-67
2021/10/24 11:51:10;;;;;;;5.97;2.70;;;19.00;98.60;;;;;;4953470;28;20086;-66
2021/10/24 11:53:42;;;;;;;7.72;2.70;;;19.20;98.00;;;;;;4953732;28;20047;-67
2021/10/24 11:59:36;;;;;;;8.73;4.38;;;19.50;96.20;;;;;;4951661;28;20396;-67
2021/10/24 12:02:10;;;;;;;11.43;5.13;;;19.70;95.70;;;;;;4952621;28;20058;-67
2021/10/24 12:04:38;;;;;;;7.47;2.85;;;20.00;95.20;;;;;;4959639;28;20436;-68
2021/10/24 12:07:06;;;;;;;5.45;2.30;;;20.30;94.20;;;;;;4957002;28;20352;-67
2021/10/24 12:09:34;;;;;;;7.07;3.30;;;20.60;92.80;;;;;;4952503;28;20051;-67
2021/10/24 12:12:13;;;;;;;11.88;6.00;;;22.20;91.50;;;;;;4951818;28;20051;-67
2021/10/24 12:14:48;;;;;;;10.90;6.18;;;24.00;87.90;;;;;;4942253;28;20048;-67
2021/10/24 12:17:21;;;;;;;7.53;4.50;;;25.60;80.90;;;;;;4953853;29;20039;-67
2021/10/24 12:20:21;;;;;;;5.75;2.50;;;27.20;75.00;;;;;;4953456;28;20435;-67
2021/10/24 12:22:52;;;;;;;5.18;2.25;;;28.70;70.40;;;;;;4952909;29;20402;-67
2021/10/24 12:25:46;;;;;;;3.80;1.85;;;29.20;65.90;;;;;;4951174;28;20043;-67
2021/10/24 12:28:23;;;;;;;4.43;1.77;;;30.60;61.70;;;;;;4952982;28;20047;-67
2021/10/24 12:30:54;;;;;;;4.47;1.90;;;30.70;60.40;;;;;;4952156;28;20051;-68
2021/10/24 12:33:33;;;;;;;4.27;1.60;;;31.40;58.80;;;;;;4927885;29;20043;-67
2021/10/24 12:36:07;;;;;;;5.45;2.22;;;32.00;57.60;;;;;;4952111;28;20039;-67
2021/10/24 12:39:06;;;;;;;4.88;2.00;;;31.50;56.20;;;;;;4953484;28;20070;-67
2021/10/24 12:41:35;;;;;;;5.30;2.25;;;32.20;55.60;;;;;;4945528;29;20043;-68
2021/10/24 12:44:14;;;;;;;3.92;1.73;;;33.00;54.80;;;;;;4951351;29;20083;-67
2021/10/24 12:46:42;;;;;;;5.90;1.95;;;33.30;53.60;;;;;;4942867;29;20047;-66
2021/10/24 12:49:19;;;;;;;5.38;1.80;;;33.60;52.10;;;;;;4951650;28;20483;-67
2021/10/24 12:51:49;;;;;;;8.45;2.13;;;32.70;51.70;;;;;;4953270;29;20124;-67
2021/10/24 12:54:30;;;;;;;3.80;1.75;;;32.20;52.10;;;;;;4951192;28;20043;-67
2021/10/24 12:56:57;;;;;;;;;;;32.40;51.60;;;;;;4952991;28;20050;-67
2021/10/24 12:59:25;;;;;;;4.47;1.95;;;32.90;51.40;;;;;;4952325;28;19929;-68
2021/10/24 13:01:52;;;;;;;3.85;1.73;;;33.50;50.70;;;;;;4952692;28;20498;-68
2021/10/24 13:04:20;;;;;;;7.25;1.95;;;34.20;50.10;;;;;;4944978;29;20047;-67
2021/10/24 13:06:48;;;;;;;5.10;2.15;;;34.70;49.90;;;;;;4958869;28;20519;-67
2021/10/24 13:09:18;;;;;;;3.17;1.73;;;35.00;49.00;;;;;;4937136;28;20062;-67
2021/10/24 13:11:45;;;;;;;5.18;1.80;;;34.80;48.70;;;;;;4951397;28;20040;-68
2021/10/24 13:14:13;;;;;;;5.00;2.25;;;34.90;48.90;;;;;;4951407;28;20130;-67
2021/10/24 13:16:40;;;;;;;3.72;1.80;;;35.50;48.00;;;;;;4951064;28;20050;-67
2021/10/24 13:19:08;;;;;;;3.20;1.40;;;35.10;48.90;;;;;;4952306;28;20040;-66
2021/10/24 13:24:13;;;;;;;5.40;1.80;;;35.60;48.10;;;;;;4952116;28;20049;-67
2021/10/24 13:26:43;;;;;;;4.65;1.85;;;35.90;48.20;;;;;;4951070;28;20513;-66